createdAt,value
2023-03-05T09:10:54.211Z,4.72
2023-03-05T09:14:58.860Z,4.71
2023-03-05T09:19:01.729Z,4.78
2023-03-05T09:23:04.920Z,4.92
2023-03-05T09:27:08.009Z,5.09
2023-03-05T09:31:12.653Z,5.19
2023-03-05T09:35:15.856Z,5.29
2023-03-05T09:39:18.996Z,5.44
2023-03-05T09:43:35.565Z,5.57
2023-03-05T09:47:54.752Z,5.63
2023-03-05T09:52:04.919Z,5.66
2023-03-05T09:56:13.460Z,5.79
2023-03-05T10:00:30.877Z,5.90
2023-03-05T10:04:47.572Z,5.98
2023-03-05T10:08:56.572Z,5.98
2023-03-05T10:13:03.325Z,6.08
2023-03-05T10:17:23.994Z,6.26
2023-03-05T10:21:39.204Z,6.47
2023-03-05T10:25:55.686Z,6.31
2023-03-05T10:30:07.250Z,6.41
2023-03-05T10:34:52.868Z,6.43
2023-03-05T10:39:34.874Z,6.52
2023-03-05T10:43:47.627Z,6.60
2023-03-05T10:47:53.662Z,6.74
2023-03-05T10:52:04.611Z,6.88
2023-03-05T10:56:08.135Z,7.02
2023-03-05T11:00:19.900Z,6.97
2023-03-05T11:04:32.152Z,7.07
2023-03-05T11:08:36.589Z,7.13
2023-03-05T11:12:40.200Z,7.25
2023-03-05T11:16:50.825Z,7.31
2023-03-05T11:21:07.393Z,7.10
2023-03-05T11:25:18.931Z,7.22
2023-03-05T11:29:24.530Z,7.29
2023-03-05T11:33:30.113Z,7.26
2023-03-05T11:37:34.031Z,7.36
2023-03-05T11:41:40.495Z,7.50
2023-03-05T11:45:44.328Z,7.62
2023-03-05T11:49:53.368Z,7.58
2023-03-05T11:54:00.483Z,7.50
2023-03-05T11:58:22.684Z,7.44
2023-03-05T12:02:27.980Z,7.56
2023-03-05T12:06:38.854Z,7.63
2023-03-05T12:10:42.489Z,7.60
2023-03-05T12:14:51.489Z,7.64
2023-03-05T12:19:01.443Z,7.66
2023-03-05T12:23:06.404Z,7.74
2023-03-05T12:27:18.322Z,7.71
2023-03-05T12:31:37.727Z,7.84
2023-03-05T12:35:41.972Z,7.72
2023-03-05T12:39:52.752Z,7.70
2023-03-05T12:44:21.045Z,7.45
2023-03-05T12:48:45.008Z,7.36
2023-03-05T12:52:48.319Z,7.29
2023-03-05T12:56:54.376Z,7.30
2023-03-05T13:01:04.075Z,7.30
2023-03-05T13:05:21.273Z,7.36
2023-03-05T13:09:27.595Z,7.43
2023-03-05T13:13:36.750Z,7.58
2023-03-05T13:17:44.367Z,7.65
2023-03-05T13:21:47.641Z,7.69
2023-03-05T13:26:02.939Z,7.77
2023-03-05T13:30:20.552Z,7.87
2023-03-05T13:34:26.563Z,7.89
2023-03-05T13:38:36.640Z,7.81
2023-03-05T13:42:40.031Z,7.90
2023-03-05T13:46:44.454Z,7.96
2023-03-05T13:50:55.193Z,8.23
2023-03-05T13:54:59.544Z,8.25
2023-03-05T13:59:02.574Z,8.17
2023-03-05T14:03:22.206Z,8.04
2023-03-05T14:07:37.413Z,8.03
2023-03-05T14:11:40.528Z,8.00
2023-03-05T14:15:44.704Z,7.89
2023-03-05T14:19:49.544Z,7.84
2023-03-05T14:23:55.061Z,7.86
2023-03-05T14:27:58.595Z,7.79
2023-03-05T14:32:05.211Z,7.79
2023-03-05T14:36:11.562Z,7.64
2023-03-05T14:40:27.462Z,7.42
2023-03-05T14:44:30.710Z,7.25
2023-03-05T14:48:33.535Z,7.23
2023-03-05T14:52:38.384Z,7.23
2023-03-05T14:56:41.254Z,7.27
2023-03-05T15:00:44.994Z,7.28
2023-03-05T15:04:48.504Z,7.24
2023-03-05T15:08:53.256Z,7.17
2023-03-05T15:12:56.755Z,7.18
2023-03-05T15:17:00.908Z,7.18
2023-03-05T15:21:03.735Z,7.18
2023-03-05T15:25:08.741Z,7.25
2023-03-05T15:29:11.607Z,7.24
2023-03-05T15:33:16.755Z,7.34
2023-03-05T15:37:19.576Z,7.41
2023-03-05T15:41:23.927Z,7.36
2023-03-05T15:45:27.388Z,7.25
2023-03-05T15:49:30.175Z,7.20
2023-03-05T15:53:33.060Z,7.15
2023-03-05T15:57:39.010Z,7.09
2023-03-05T16:01:47.463Z,6.98
2023-03-05T16:05:50.600Z,6.98
2023-03-05T16:09:56.051Z,6.91
2023-03-05T16:14:02.870Z,6.88
2023-03-05T16:18:09.143Z,6.89
2023-03-05T16:22:11.982Z,6.86
2023-03-05T16:26:14.770Z,6.83
2023-03-05T16:30:20.188Z,6.77
2023-03-05T16:34:23.032Z,6.67
2023-03-05T16:38:25.991Z,6.65
2023-03-05T16:42:29.356Z,6.64
2023-03-05T16:46:35.182Z,6.55
2023-03-05T16:50:38.154Z,6.53
2023-03-05T16:54:41.435Z,6.53
2023-03-05T16:58:44.470Z,6.55
2023-03-05T17:02:49.047Z,6.51
2023-03-05T17:06:53.407Z,6.49
2023-03-05T17:10:56.438Z,6.48
2023-03-05T17:14:59.411Z,6.47
2023-03-05T17:19:04.768Z,6.41
2023-03-05T17:23:07.622Z,6.36
2023-03-05T17:27:11.199Z,6.29
2023-03-05T17:31:14.617Z,6.27
2023-03-05T17:35:20.987Z,6.25
2023-03-05T17:39:23.776Z,6.22
2023-03-05T17:43:26.597Z,6.22
2023-03-05T17:47:33.284Z,6.16
2023-03-05T17:51:38.392Z,6.16
2023-03-05T17:55:41.525Z,6.13
2023-03-05T17:59:44.739Z,6.13
2023-03-05T18:03:47.700Z,6.13
2023-03-05T18:07:53.505Z,6.14
2023-03-05T18:11:56.480Z,6.15
2023-03-05T18:16:00.523Z,6.09
2023-03-05T18:20:05.175Z,6.08
2023-03-05T18:24:10.654Z,6.07
2023-03-05T18:28:18.798Z,6.07
2023-03-05T18:32:24.245Z,6.04
2023-03-05T18:36:27.290Z,5.99
2023-03-05T18:40:35.855Z,5.94
2023-03-05T18:44:39.432Z,5.92
2023-03-05T18:48:42.275Z,5.92
2023-03-05T18:52:45.667Z,5.86
2023-03-05T18:56:51.095Z,5.85
2023-03-05T19:00:54.258Z,5.83
2023-03-05T19:05:00.938Z,5.82
2023-03-05T19:10:02.256Z,5.77
2023-03-05T19:14:06.951Z,5.73
2023-03-05T19:18:09.745Z,5.71
2023-03-05T19:22:29.427Z,5.70
2023-03-05T19:26:49.048Z,5.69
2023-03-05T19:31:04.139Z,5.64
2023-03-05T19:35:09.011Z,5.61
2023-03-05T19:39:13.049Z,5.59
2023-03-05T19:43:17.631Z,5.60
2023-03-05T19:47:22.191Z,5.54
2023-03-05T19:51:26.942Z,5.52
2023-03-05T19:55:31.119Z,5.48
2023-03-05T19:59:34.070Z,5.45
2023-03-05T20:03:39.047Z,5.41
2023-03-05T20:07:43.215Z,5.38
2023-03-05T20:11:47.049Z,5.40
2023-03-05T20:16:06.251Z,5.38
2023-03-05T20:20:30.878Z,5.33
2023-03-05T20:24:50.494Z,5.33
2023-03-05T20:29:07.566Z,5.30
2023-03-05T20:33:17.417Z,5.26
2023-03-05T20:38:25.961Z,5.24
2023-03-05T20:42:31.070Z,5.19
2023-03-05T20:46:36.722Z,5.18
2023-03-05T20:51:01.413Z,5.17
2023-03-05T20:55:04.940Z,5.17
2023-03-05T20:59:10.771Z,5.16
2023-03-05T21:03:14.260Z,5.18
2023-03-05T21:07:18.675Z,5.20
2023-03-05T21:11:22.792Z,5.17
2023-03-05T21:15:30.241Z,5.18
2023-03-05T21:19:35.154Z,5.17
2023-03-05T21:23:53.392Z,5.11
2023-03-05T21:27:58.282Z,5.08
2023-03-05T21:32:03.300Z,5.09
2023-03-05T21:36:07.652Z,5.07
2023-03-05T21:40:13.977Z,5.02
2023-03-05T21:44:17.763Z,5.02
2023-03-05T21:48:23.346Z,5.05
2023-03-05T21:52:26.644Z,5.00
2023-03-05T21:56:31.023Z,5.00
2023-03-05T22:00:33.877Z,4.93
2023-03-05T22:04:38.239Z,4.96
2023-03-05T22:08:41.685Z,4.92
2023-03-05T22:13:13.203Z,4.87
2023-03-05T22:17:16.238Z,4.88
2023-03-05T22:21:22.807Z,4.83
2023-03-05T22:25:26.594Z,4.80
2023-03-05T22:29:29.546Z,4.81
2023-03-05T22:33:33.087Z,4.78
2023-03-05T22:37:37.526Z,4.75
2023-03-05T22:41:42.576Z,4.74
2023-03-05T22:45:45.977Z,4.77
2023-03-05T22:49:48.797Z,4.77
2023-03-05T22:53:53.614Z,4.75
2023-03-05T22:57:56.719Z,4.77
2023-03-05T23:01:59.647Z,4.75
2023-03-05T23:06:02.710Z,4.73
2023-03-05T23:10:10.635Z,4.70
2023-03-05T23:14:14.517Z,4.68
2023-03-05T23:18:17.579Z,4.68
2023-03-05T23:22:20.414Z,4.62
2023-03-05T23:26:25.483Z,4.55
2023-03-05T23:30:29.412Z,4.51
2023-03-05T23:34:32.597Z,4.49
2023-03-05T23:38:36.594Z,4.42
2023-03-05T23:42:41.163Z,4.32
2023-03-05T23:46:44.095Z,4.24
2023-03-05T23:50:48.539Z,4.17
2023-03-05T23:54:51.829Z,4.13
2023-03-05T23:59:00.452Z,4.07
